Time;durP1;ratioP1;P1;durP2;ratioP2;P2;SDS_P1;SDS_P2;PMS_P1;PMS_P2;Temp;Humidity;BMP_temperature;BMP_pressure;BME280_temperature;BME280_humidity;BME280_pressure;Samples;Min_cycle;Max_cycle;Signal;HPM_P1;HPM_P2
2023/01/26 00:02:20;;;;;;;4.33;3.53;;;;;;;;;;5070691;28;20200;-78
2023/01/26 00:04:46;;;;;;;5.63;3.73;;;;;;;;;;5062129;28;20201;-78
2023/01/26 00:07:13;;;;;;;6.60;5.23;;;;;;;;;;5066958;28;20688;-79
2023/01/26 00:09:40;;;;;;;6.77;4.30;;;;;;;;;;5070940;28;20204;-78
2023/01/26 00:12:07;;;;;;;4.90;4.30;;;;;;;;;;5071123;28;20558;-79
2023/01/26 00:14:48;;;;;;;6.00;4.70;;;;;;;;;;5061293;28;20237;-78
2023/01/26 00:17:24;;;;;;;4.97;3.87;;;;;;;;;;5064314;28;20608;-79
2023/01/26 00:19:54;;;;;;;5.77;4.23;;;;;;;;;;5063891;28;20197;-78
2023/01/26 00:22:21;;;;;;;5.67;4.77;;;;;;;;;;5045553;28;20300;-78
2023/01/26 00:24:48;;;;;;;4.27;3.87;;;;;;;;;;5057270;28;20234;-78
2023/01/26 00:27:14;;;;;;;7.30;4.67;;;;;;;;;;5070697;28;20201;-78
2023/01/26 00:29:41;;;;;;;4.13;3.73;;;;;;;;;;5070246;28;20639;-79
2023/01/26 00:32:08;;;;;;;4.20;3.80;;;;;;;;;;5070819;28;20208;-78
2023/01/26 00:34:35;;;;;;;6.13;4.10;;;;;;;;;;5070786;28;20225;-78
2023/01/26 00:37:03;;;;;;;6.07;4.70;;;;;;;;;;5070920;28;20258;-78
2023/01/26 00:39:30;;;;;;;4.30;3.77;;;;;;;;;;5068915;28;20282;-78
2023/01/26 00:42:12;;;;;;;6.87;4.90;;;;;;;;;;5058954;28;20207;-78
2023/01/26 00:44:40;;;;;;;5.37;4.43;;;;;;;;;;5056097;28;20232;-78
2023/01/26 00:47:08;;;;;;;6.80;5.33;;;;;;;;;;5059443;28;20592;-78
2023/01/26 00:49:35;;;;;;;5.43;4.27;;;;;;;;;;5067979;28;20208;-78
2023/01/26 00:52:04;;;;;;;6.17;4.80;;;;;;;;;;5059436;28;20206;-78
2023/01/26 00:54:31;;;;;;;5.27;4.00;;;;;;;;;;5069017;28;20720;-77
2023/01/26 00:56:57;;;;;;;5.27;4.30;;;;;;;;;;5057976;28;20247;-78
2023/01/26 00:59:24;;;;;;;5.80;4.13;;;;;;;;;;5069012;28;20232;-78
2023/01/26 01:01:52;;;;;;;5.00;3.93;;;;;;;;;;5057646;28;20296;-78
2023/01/26 01:04:19;;;;;;;7.60;4.67;;;;;;;;;;5069724;28;20208;-78
2023/01/26 01:06:45;;;;;;;4.60;3.87;;;;;;;;;;5070635;28;20201;-78
2023/01/26 01:09:13;;;;;;;5.37;4.77;;;;;;;;;;5063486;28;20201;-78
2023/01/26 01:11:41;;;;;;;5.03;4.50;;;;;;;;;;5039467;28;20210;-79
2023/01/26 01:14:08;;;;;;;4.97;3.73;;;;;;;;;;5070376;28;20719;-79
2023/01/26 01:16:35;;;;;;;6.53;4.03;;;;;;;;;;5069437;28;20710;-79
2023/01/26 01:19:02;;;;;;;5.60;4.00;;;;;;;;;;5062847;28;20259;-78
2023/01/26 01:21:28;;;;;;;5.90;5.27;;;;;;;;;;5064131;28;20209;-78
2023/01/26 01:23:55;;;;;;;4.93;3.60;;;;;;;;;;5070564;28;20193;-79
2023/01/26 01:26:23;;;;;;;5.20;4.37;;;;;;;;;;5069791;28;20205;-78
2023/01/26 01:28:53;;;;;;;4.47;4.00;;;;;;;;;;5062366;28;20201;-78
2023/01/26 01:31:20;;;;;;;4.83;3.70;;;;;;;;;;5065529;28;20213;-78
2023/01/26 01:33:47;;;;;;;5.60;3.90;;;;;;;;;;5061571;28;20222;-79
2023/01/26 01:36:15;;;;;;;6.80;4.70;;;;;;;;;;5065010;28;20745;-79
2023/01/26 01:38:43;;;;;;;5.30;3.97;;;;;;;;;;5069966;28;20208;-78
2023/01/26 01:41:10;;;;;;;6.53;4.83;;;;;;;;;;5067804;28;20201;-78
2023/01/26 01:43:38;;;;;;;6.40;5.17;;;;;;;;;;5059187;28;20212;-78
2023/01/26 01:46:07;;;;;;;6.73;5.67;;;;;;;;;;5056296;28;20271;-78
2023/01/26 01:48:38;;;;;;;7.10;5.20;;;;;;;;;;5060237;28;20205;-78
2023/01/26 01:51:08;;;;;;;4.97;4.43;;;;;;;;;;5065412;28;20209;-78
2023/01/26 01:53:38;;;;;;;6.27;5.30;;;;;;;;;;5050191;28;20283;-78
2023/01/26 01:56:09;;;;;;;4.87;4.33;;;;;;;;;;5069498;28;20201;-78
2023/01/26 01:58:39;;;;;;;6.00;4.53;;;;;;;;;;5073359;28;20687;-78
2023/01/26 02:01:06;;;;;;;5.73;4.77;;;;;;;;;;5072576;28;20197;-79
2023/01/26 02:03:34;;;;;;;5.30;4.57;;;;;;;;;;5073563;28;20220;-78
2023/01/26 02:06:04;;;;;;;6.60;4.77;;;;;;;;;;5054123;28;20198;-78
2023/01/26 02:08:33;;;;;;;6.10;5.10;;;;;;;;;;5053380;28;20650;-78
2023/01/26 02:11:02;;;;;;;4.20;3.73;;;;;;;;;;5060608;28;20250;-79
2023/01/26 02:13:30;;;;;;;5.47;4.30;;;;;;;;;;5073138;28;20220;-78
2023/01/26 02:15:59;;;;;;;5.00;4.50;;;;;;;;;;5072999;28;20694;-78
2023/01/26 02:18:26;;;;;;;4.97;4.20;;;;;;;;;;5057961;28;20252;-78
2023/01/26 02:20:56;;;;;;;4.57;3.80;;;;;;;;;;5061791;28;20201;-78
2023/01/26 02:23:39;;;;;;;6.43;4.57;;;;;;;;;;5070701;28;20205;-78
2023/01/26 02:26:10;;;;;;;4.57;4.17;;;;;;;;;;5064072;28;20213;-78
2023/01/26 02:28:37;;;;;;;5.17;4.57;;;;;;;;;;5067757;28;20252;-78
2023/01/26 02:31:04;;;;;;;7.03;4.43;;;;;;;;;;5064311;28;20657;-78
2023/01/26 02:33:32;;;;;;;5.43;4.30;;;;;;;;;;5072793;28;20776;-78
2023/01/26 02:35:59;;;;;;;6.13;4.47;;;;;;;;;;5072663;28;20201;-78
2023/01/26 02:38:29;;;;;;;5.30;4.13;;;;;;;;;;5053169;28;20248;-79
2023/01/26 02:40:58;;;;;;;6.73;5.03;;;;;;;;;;5066149;28;20208;-78
2023/01/26 02:43:26;;;;;;;6.67;4.07;;;;;;;;;;5065578;28;20201;-78
2023/01/26 02:45:54;;;;;;;5.43;4.30;;;;;;;;;;5053222;28;20210;-79
2023/01/26 02:51:02;;;;;;;6.00;4.33;;;;;;;;;;5058630;28;20259;-79
2023/01/26 02:53:29;;;;;;;5.20;4.37;;;;;;;;;;5072620;28;20765;-78
2023/01/26 02:55:55;;;;;;;5.63;4.87;;;;;;;;;;5072159;28;20733;-79
2023/01/26 02:58:23;;;;;;;6.37;4.67;;;;;;;;;;5073017;28;20225;-78
2023/01/26 03:00:51;;;;;;;7.70;4.30;;;;;;;;;;5058277;28;20723;-79
2023/01/26 03:03:20;;;;;;;6.23;5.07;;;;;;;;;;5060756;28;20696;-78
2023/01/26 03:05:46;;;;;;;5.60;4.87;;;;;;;;;;5052088;28;20575;-79
2023/01/26 03:08:13;;;;;;;6.73;4.90;;;;;;;;;;5051015;28;20220;-79
2023/01/26 03:10:40;;;;;;;5.70;4.80;;;;;;;;;;5065911;28;20271;-78
2023/01/26 03:13:07;;;;;;;5.50;4.20;;;;;;;;;;5052386;28;20198;-78
2023/01/26 03:15:46;;;;;;;6.33;4.87;;;;;;;;;;5071326;28;20225;-79
2023/01/26 03:29:13;;;;;;;29.63;17.30;;;;;;;;;;5071474;28;20761;-79
2023/01/26 03:31:39;;;;;;;23.40;14.73;;;;;;;;;;5071964;28;20790;-80
2023/01/26 03:34:07;;;;;;;14.00;9.07;;;;;;;;;;5063510;28;20235;-79
2023/01/26 03:36:36;;;;;;;8.53;6.50;;;;;;;;;;5065647;28;20231;-79
2023/01/26 03:39:02;;;;;;;7.27;6.57;;;;;;;;;;5059266;28;20211;-79
2023/01/26 03:57:54;;;;;;;10.23;7.23;;;;;;;;;;5064895;28;20255;-79
2023/01/26 04:00:21;;;;;;;8.77;6.87;;;;;;;;;;5064149;28;20233;-79
2023/01/26 04:08:20;;;;;;;8.23;5.67;;;;;;;;;;5052546;28;20227;-80
2023/01/26 04:10:47;;;;;;;7.17;6.10;;;;;;;;;;5045398;28;20263;-80
2023/01/26 04:21:28;;;;;;;5.57;4.70;;;;;;;;;;5057239;28;20225;-79
2023/01/26 04:23:56;;;;;;;7.10;5.47;;;;;;;;;;5038790;28;20981;-79
2023/01/26 04:26:23;;;;;;;8.27;6.37;;;;;;;;;;5062257;28;20205;-78
2023/01/26 04:28:50;;;;;;;10.57;7.57;;;;;;;;;;5057060;28;20209;-78
2023/01/26 04:31:17;;;;;;;8.80;7.57;;;;;;;;;;5070102;28;20730;-79
2023/01/26 04:33:44;;;;;;;9.23;6.60;;;;;;;;;;5052858;28;20198;-79
2023/01/26 04:36:11;;;;;;;6.27;5.60;;;;;;;;;;5061245;28;20668;-80
2023/01/26 04:38:39;;;;;;;9.57;6.50;;;;;;;;;;5054290;28;20198;-80
2023/01/26 04:41:06;;;;;;;10.43;7.07;;;;;;;;;;5051136;28;20206;-79
2023/01/26 04:43:33;;;;;;;6.97;5.13;;;;;;;;;;5064440;28;20194;-80
2023/01/26 04:46:00;;;;;;;5.10;4.53;;;;;;;;;;5050856;28;20209;-80
2023/01/26 04:48:27;;;;;;;5.60;4.40;;;;;;;;;;5068701;28;20208;-80
2023/01/26 04:50:54;;;;;;;5.70;4.47;;;;;;;;;;5059222;28;20210;-80
2023/01/26 04:53:21;;;;;;;5.73;3.90;;;;;;;;;;5060082;28;20205;-80
2023/01/26 04:55:49;;;;;;;4.50;4.10;;;;;;;;;;5066308;28;20657;-80
2023/01/26 04:58:16;;;;;;;5.93;5.20;;;;;;;;;;5050045;28;20197;-79
2023/01/26 05:00:43;;;;;;;11.63;5.73;;;;;;;;;;5053660;28;20695;-81
2023/01/26 05:03:10;;;;;;;3.97;3.40;;;;;;;;;;5070694;28;20205;-80
2023/01/26 05:05:37;;;;;;;4.23;3.43;;;;;;;;;;5056872;28;20201;-80
2023/01/26 05:08:04;;;;;;;6.90;4.73;;;;;;;;;;5060221;28;20213;-80
2023/01/26 05:10:31;;;;;;;7.70;5.50;;;;;;;;;;5053377;28;20622;-79
2023/01/26 05:12:59;;;;;;;7.50;4.87;;;;;;;;;;5057178;28;20605;-79
2023/01/26 05:15:26;;;;;;;6.57;4.80;;;;;;;;;;5054842;28;20222;-81
2023/01/26 05:17:53;;;;;;;10.47;5.93;;;;;;;;;;5044573;28;20201;-80
2023/01/26 05:20:19;;;;;;;9.13;6.03;;;;;;;;;;5043323;28;20206;-80
2023/01/26 05:22:46;;;;;;;5.53;4.53;;;;;;;;;;5048894;28;20202;-82
2023/01/26 05:25:13;;;;;;;5.63;4.37;;;;;;;;;;5050331;28;20260;-81
2023/01/26 05:27:40;;;;;;;6.47;4.70;;;;;;;;;;5050371;28;20206;-80
2023/01/26 05:30:10;;;;;;;6.30;5.70;;;;;;;;;;5051850;28;20206;-80
2023/01/26 05:32:37;;;;;;;6.83;5.63;;;;;;;;;;5073125;28;20212;-81
2023/01/26 05:35:04;;;;;;;8.43;5.30;;;;;;;;;;5059791;28;20635;-80
2023/01/26 05:37:31;;;;;;;8.13;5.60;;;;;;;;;;5074033;28;20213;-79
2023/01/26 05:39:58;;;;;;;6.23;5.13;;;;;;;;;;5057984;28;20275;-80
2023/01/26 05:42:25;;;;;;;8.07;5.80;;;;;;;;;;5054489;28;20198;-80
2023/01/26 05:44:52;;;;;;;8.60;6.37;;;;;;;;;;5056560;28;20213;-80
2023/01/26 05:47:21;;;;;;;6.33;5.00;;;;;;;;;;5074077;28;20255;-81
2023/01/26 05:49:47;;;;;;;10.33;6.90;;;;;;;;;;5073383;28;20737;-82
2023/01/26 05:52:15;;;;;;;8.63;6.33;;;;;;;;;;5074275;28;20266;-79
2023/01/26 05:54:42;;;;;;;8.80;6.17;;;;;;;;;;5040976;28;20295;-80
2023/01/26 05:57:09;;;;;;;6.57;5.53;;;;;;;;;;5053991;28;20248;-80
2023/01/26 05:59:36;;;;;;;6.43;5.83;;;;;;;;;;5061134;28;20236;-80
2023/01/26 06:02:03;;;;;;;6.70;5.33;;;;;;;;;;5059811;28;20629;-80
2023/01/26 06:04:31;;;;;;;6.80;6.10;;;;;;;;;;5073705;28;20213;-80
2023/01/26 06:06:59;;;;;;;7.80;6.33;;;;;;;;;;5060537;28;20660;-80
2023/01/26 06:09:26;;;;;;;7.77;5.73;;;;;;;;;;5073454;28;20212;-80
2023/01/26 06:11:52;;;;;;;7.37;6.60;;;;;;;;;;5058531;28;20565;-80
2023/01/26 06:14:19;;;;;;;13.63;7.40;;;;;;;;;;5053914;28;20660;-80
2023/01/26 06:16:46;;;;;;;9.97;6.93;;;;;;;;;;5069226;28;20302;-80
2023/01/26 06:19:13;;;;;;;9.90;7.33;;;;;;;;;;5073077;28;20197;-80
2023/01/26 06:21:41;;;;;;;8.83;6.50;;;;;;;;;;5057129;28;20194;-80
2023/01/26 06:24:08;;;;;;;8.63;6.30;;;;;;;;;;5063118;28;20273;-80
2023/01/26 06:26:34;;;;;;;16.07;12.13;;;;;;;;;;5070002;28;20251;-80
2023/01/26 06:29:02;;;;;;;19.20;12.30;;;;;;;;;;5053648;28;20198;-79
2023/01/26 06:31:29;;;;;;;12.30;8.33;;;;;;;;;;5070079;28;20201;-80
2023/01/26 06:33:56;;;;;;;11.40;8.87;;;;;;;;;;5072693;28;20209;-80
2023/01/26 06:36:23;;;;;;;7.50;6.03;;;;;;;;;;5056080;28;20226;-80
2023/01/26 06:38:52;;;;;;;10.03;8.13;;;;;;;;;;5053116;28;20198;-84
2023/01/26 06:41:19;;;;;;;8.00;6.70;;;;;;;;;;5066434;28;20205;-80
2023/01/26 06:43:47;;;;;;;6.27;5.50;;;;;;;;;;5053431;28;20206;-80
2023/01/26 06:46:14;;;;;;;6.50;5.27;;;;;;;;;;5057471;28;20250;-82
2023/01/26 06:48:41;;;;;;;6.40;5.10;;;;;;;;;;5073161;28;20205;-80
2023/01/26 06:51:40;;;;;;;6.40;5.20;;;;;;;;;;5059171;28;20193;-80
2023/01/26 06:54:11;;;;;;;5.37;4.80;;;;;;;;;;5058791;28;20213;-80
2023/01/26 06:56:38;;;;;;;6.73;5.03;;;;;;;;;;5063526;28;20214;-81
2023/01/26 06:59:05;;;;;;;7.10;5.07;;;;;;;;;;5066243;28;20233;-80
2023/01/26 07:01:35;;;;;;;6.47;5.40;;;;;;;;;;5052328;28;20655;-80
2023/01/26 07:04:02;;;;;;;13.57;7.93;;;;;;;;;;5052659;28;20202;-80
2023/01/26 07:06:29;;;;;;;12.67;8.70;;;;;;;;;;5062648;28;20254;-80
2023/01/26 07:08:55;;;;;;;9.67;8.37;;;;;;;;;;5054768;28;20635;-80
2023/01/26 07:11:24;;;;;;;10.57;8.17;;;;;;;;;;5062990;28;20212;-80
2023/01/26 07:13:51;;;;;;;8.87;6.90;;;;;;;;;;5059096;28;20258;-80
2023/01/26 07:16:18;;;;;;;11.80;6.90;;;;;;;;;;5061064;28;20233;-80
2023/01/26 07:18:45;;;;;;;13.80;9.47;;;;;;;;;;5056639;28;20216;-80
2023/01/26 07:21:14;;;;;;;14.93;9.77;;;;;;;;;;5060891;28;20267;-80
2023/01/26 07:23:41;;;;;;;12.20;8.30;;;;;;;;;;5056861;28;20695;-80
2023/01/26 07:26:08;;;;;;;10.23;7.07;;;;;;;;;;5060358;28;20240;-80
2023/01/26 07:28:37;;;;;;;7.23;6.53;;;;;;;;;;5052405;28;20202;-80
2023/01/26 07:31:05;;;;;;;10.17;7.00;;;;;;;;;;5064707;28;20209;-80
2023/01/26 07:33:33;;;;;;;7.90;6.20;;;;;;;;;;5071365;28;20216;-80
2023/01/26 07:36:01;;;;;;;9.60;7.17;;;;;;;;;;5059196;28;20275;-80
2023/01/26 07:38:28;;;;;;;33.17;24.47;;;;;;;;;;5051416;28;20209;-80
2023/01/26 07:40:55;;;;;;;41.60;27.93;;;;;;;;;;5051768;28;20210;-80
2023/01/26 07:43:22;;;;;;;20.93;16.17;;;;;;;;;;5038750;28;20206;-80
2023/01/26 07:45:52;;;;;;;19.23;17.20;;;;;;;;;;5064956;28;20614;-80
2023/01/26 07:48:19;;;;;;;15.80;13.60;;;;;;;;;;5064645;28;20224;-80
2023/01/26 07:50:47;;;;;;;10.43;9.43;;;;;;;;;;5065136;28;20683;-80
2023/01/26 07:53:15;;;;;;;7.43;5.53;;;;;;;;;;5059125;28;20209;-80
2023/01/26 07:55:43;;;;;;;6.00;4.77;;;;;;;;;;5057939;28;20232;-80
2023/01/26 07:58:09;;;;;;;9.33;7.50;;;;;;;;;;5062810;28;20319;-80
2023/01/26 08:00:36;;;;;;;10.13;7.30;;;;;;;;;;5053193;28;20234;-79
2023/01/26 08:03:04;;;;;;;8.13;6.50;;;;;;;;;;5062854;28;20194;-80
2023/01/26 08:05:32;;;;;;;9.37;7.67;;;;;;;;;;5054031;28;21382;-79
2023/01/26 08:07:59;;;;;;;7.30;6.07;;;;;;;;;;5061808;28;20209;-80
2023/01/26 08:10:30;;;;;;;7.40;6.50;;;;;;;;;;5054266;28;20205;-80
2023/01/26 08:12:59;;;;;;;7.00;6.10;;;;;;;;;;5071387;28;20209;-80
2023/01/26 08:15:26;;;;;;;7.03;5.80;;;;;;;;;;5057669;28;20221;-81
2023/01/26 08:17:53;;;;;;;5.67;4.77;;;;;;;;;;5060363;28;20206;-79
2023/01/26 08:20:24;;;;;;;6.70;4.83;;;;;;;;;;5069171;28;20642;-80
2023/01/26 08:22:51;;;;;;;9.17;6.07;;;;;;;;;;5059205;28;20205;-81
2023/01/26 08:25:17;;;;;;;6.90;5.43;;;;;;;;;;5064384;28;20212;-79
2023/01/26 08:27:44;;;;;;;9.43;6.47;;;;;;;;;;5063745;28;20205;-79
2023/01/26 08:30:12;;;;;;;16.80;11.03;;;;;;;;;;5056837;28;20201;-80
2023/01/26 08:32:39;;;;;;;10.43;6.27;;;;;;;;;;5070935;28;20216;-80
2023/01/26 08:35:06;;;;;;;7.60;6.53;;;;;;;;;;5070542;28;20719;-80
2023/01/26 08:37:35;;;;;;;6.37;5.07;;;;;;;;;;5057831;28;20287;-80
2023/01/26 08:40:01;;;;;;;8.03;6.07;;;;;;;;;;5044812;28;20392;-79
2023/01/26 08:42:28;;;;;;;5.03;4.53;;;;;;;;;;5070812;28;20201;-80
2023/01/26 08:44:55;;;;;;;9.70;6.37;;;;;;;;;;5037678;28;20190;-80
2023/01/26 08:47:21;;;;;;;5.30;4.80;;;;;;;;;;5064382;28;20255;-84
2023/01/26 08:49:48;;;;;;;8.37;5.30;;;;;;;;;;5064037;28;20194;-80
2023/01/26 08:52:15;;;;;;;8.20;5.93;;;;;;;;;;5064650;28;20629;-80
2023/01/26 08:54:43;;;;;;;5.80;5.20;;;;;;;;;;5037390;28;20259;-80
2023/01/26 08:57:11;;;;;;;8.40;6.67;;;;;;;;;;5064209;28;20228;-80
2023/01/26 08:59:37;;;;;;;11.27;7.70;;;;;;;;;;5070633;28;20690;-80
2023/01/26 09:02:04;;;;;;;8.53;6.83;;;;;;;;;;5069998;28;20209;-80
2023/01/26 09:04:31;;;;;;;9.57;6.87;;;;;;;;;;5071052;28;20262;-80
2023/01/26 09:06:58;;;;;;;9.17;6.37;;;;;;;;;;5073249;28;20255;-80
2023/01/26 09:09:25;;;;;;;8.50;6.60;;;;;;;;;;5054812;28;20298;-81
2023/01/26 09:11:56;;;;;;;8.53;6.97;;;;;;;;;;5068004;28;20205;-84
2023/01/26 09:14:23;;;;;;;7.47;6.27;;;;;;;;;;5054676;28;20210;-80
2023/01/26 09:16:50;;;;;;;9.17;7.23;;;;;;;;;;5067947;28;20224;-80
2023/01/26 09:19:17;;;;;;;9.13;7.27;;;;;;;;;;5054647;28;20627;-81
2023/01/26 09:21:43;;;;;;;12.53;8.67;;;;;;;;;;5067549;28;20205;-80
2023/01/26 09:24:11;;;;;;;17.73;11.20;;;;;;;;;;5063891;28;20209;-81
2023/01/26 09:26:38;;;;;;;9.27;6.73;;;;;;;;;;5058373;28;20252;-81
2023/01/26 09:29:06;;;;;;;7.47;5.70;;;;;;;;;;5064107;28;20636;-81
2023/01/26 09:31:32;;;;;;;9.17;6.77;;;;;;;;;;5057993;28;20276;-81
2023/01/26 09:33:59;;;;;;;7.50;6.70;;;;;;;;;;5054292;28;20638;-81
2023/01/26 09:36:26;;;;;;;11.37;9.23;;;;;;;;;;5070298;28;20231;-81
2023/01/26 09:38:54;;;;;;;8.77;7.07;;;;;;;;;;5074250;28;20205;-81
2023/01/26 09:41:34;;;;;;;8.80;5.77;;;;;;;;;;5057639;28;20256;-81
2023/01/26 09:44:06;;;;;;;16.57;11.37;;;;;;;;;;5054485;28;20734;-81
2023/01/26 09:46:42;;;;;;;16.47;12.40;;;;;;;;;;5067448;28;20967;-81
2023/01/26 09:49:14;;;;;;;23.83;17.90;;;;;;;;;;5054350;28;20198;-81
2023/01/26 09:51:43;;;;;;;11.30;8.00;;;;;;;;;;5063047;28;20303;-81
2023/01/26 09:54:23;;;;;;;8.67;6.83;;;;;;;;;;5071418;28;20572;-81
2023/01/26 09:56:50;;;;;;;6.60;5.17;;;;;;;;;;5053923;28;20581;-82
2023/01/26 09:59:25;;;;;;;6.13;4.37;;;;;;;;;;5071242;28;20648;-81
2023/01/26 10:01:54;;;;;;;5.90;4.23;;;;;;;;;;5072811;28;20211;-81
2023/01/26 10:04:28;;;;;;;3.33;3.03;;;;;;;;;;5052723;28;20260;-81
2023/01/26 10:06:56;;;;;;;4.87;3.73;;;;;;;;;;5066813;28;20209;-81
2023/01/26 10:09:25;;;;;;;4.40;3.77;;;;;;;;;;5064883;28;20201;-86
2023/01/26 10:11:58;;;;;;;4.33;3.83;;;;;;;;;;5052508;28;20213;-81
2023/01/26 10:14:32;;;;;;;5.27;4.77;;;;;;;;;;5061553;28;20216;-81
2023/01/26 10:16:59;;;;;;;8.07;6.23;;;;;;;;;;5068111;28;20238;-81
2023/01/26 10:19:32;;;;;;;7.33;5.97;;;;;;;;;;5062460;28;20641;-81
2023/01/26 10:22:02;;;;;;;8.23;4.60;;;;;;;;;;5059078;28;20687;-81
2023/01/26 10:24:29;;;;;;;8.77;6.90;;;;;;;;;;5072389;28;20696;-81
2023/01/26 10:26:57;;;;;;;8.03;6.60;;;;;;;;;;5053624;28;20659;-81
2023/01/26 10:29:24;;;;;;;11.37;8.23;;;;;;;;;;5052424;28;20292;-86
2023/01/26 10:31:53;;;;;;;6.60;6.00;;;;;;;;;;5070711;28;20197;-81
2023/01/26 10:34:23;;;;;;;7.57;6.80;;;;;;;;;;5072428;28;20284;-81
2023/01/26 10:36:50;;;;;;;8.17;6.33;;;;;;;;;;5045318;28;20220;-81
2023/01/26 10:39:21;;;;;;;7.90;6.57;;;;;;;;;;5072423;28;20645;-81
2023/01/26 10:41:56;;;;;;;8.17;6.87;;;;;;;;;;5039791;28;20201;-81
2023/01/26 10:44:31;;;;;;;7.20;6.40;;;;;;;;;;5067031;28;20698;-81
2023/01/26 10:47:15;;;;;;;10.37;7.17;;;;;;;;;;5062319;28;20213;-81
2023/01/26 10:49:42;;;;;;;8.00;7.03;;;;;;;;;;5057274;28;20208;-81
2023/01/26 10:52:17;;;;;;;9.93;8.27;;;;;;;;;;5071835;28;20737;-81
2023/01/26 10:54:44;;;;;;;9.00;6.20;;;;;;;;;;5038463;28;20756;-82
2023/01/26 10:57:17;;;;;;;6.87;6.03;;;;;;;;;;5051458;28;20229;-81
2023/01/26 10:59:51;;;;;;;8.07;7.03;;;;;;;;;;5011560;28;1168026;-81
2023/01/26 11:02:23;;;;;;;11.90;7.10;;;;;;;;;;5052381;28;20206;-80
2023/01/26 11:05:04;;;;;;;8.73;6.27;;;;;;;;;;5053300;28;20268;-80
2023/01/26 11:07:34;;;;;;;8.07;7.07;;;;;;;;;;5058282;28;20205;-80
2023/01/26 11:10:22;;;;;;;7.60;5.80;;;;;;;;;;5071981;28;20258;-80
2023/01/26 11:12:49;;;;;;;7.83;6.37;;;;;;;;;;5061649;28;20205;-80
2023/01/26 11:15:17;;;;;;;8.93;7.07;;;;;;;;;;5058261;28;20217;-79
2023/01/26 11:17:50;;;;;;;9.63;6.97;;;;;;;;;;5063708;28;20772;-80
2023/01/26 11:20:34;;;;;;;7.67;6.50;;;;;;;;;;5072477;28;20205;-80
2023/01/26 11:23:04;;;;;;;6.53;5.93;;;;;;;;;;5059250;28;20198;-80
2023/01/26 11:25:35;;;;;;;9.23;6.20;;;;;;;;;;5046333;28;20259;-80
2023/01/26 11:28:16;;;;;;;7.43;6.23;;;;;;;;;;5069902;28;20209;-80
2023/01/26 11:31:03;;;;;;;6.80;6.13;;;;;;;;;;5052189;28;20271;-80
2023/01/26 11:33:35;;;;;;;8.13;5.37;;;;;;;;;;5065177;28;20202;-81
2023/01/26 11:36:10;;;;;;;7.47;5.57;;;;;;;;;;5065993;28;20617;-79
2023/01/26 11:38:39;;;;;;;7.50;6.70;;;;;;;;;;5072062;28;20277;-80
2023/01/26 11:41:18;;;;;;;7.47;6.10;;;;;;;;;;5069197;28;20205;-82
2023/01/26 11:43:58;;;;;;;8.23;7.40;;;;;;;;;;5062288;28;20699;-79
2023/01/26 11:46:37;;;;;;;11.63;8.00;;;;;;;;;;5057856;28;20204;-80
2023/01/26 11:49:18;;;;;;;12.53;9.50;;;;;;;;;;5070290;28;20209;-80
2023/01/26 11:51:55;;;;;;;10.33;7.57;;;;;;;;;;5051618;28;20209;-80
2023/01/26 11:54:55;;;;;;;18.43;11.53;;;;;;;;;;5056286;28;20664;-80
2023/01/26 11:57:27;;;;;;;16.83;10.63;;;;;;;;;;5070578;28;20225;-80
2023/01/26 11:59:59;;;;;;;13.50;9.33;;;;;;;;;;5071342;28;20228;-80
2023/01/26 12:02:29;;;;;;;11.10;8.37;;;;;;;;;;5071260;28;20197;-80
2023/01/26 12:05:02;;;;;;;10.40;8.17;;;;;;;;;;5060423;28;20673;-80
2023/01/26 12:07:30;;;;;;;13.53;8.10;;;;;;;;;;5056784;28;20225;-84
2023/01/26 12:10:00;;;;;;;9.23;7.07;;;;;;;;;;5070604;28;20211;-80
2023/01/26 12:12:32;;;;;;;9.97;6.83;;;;;;;;;;5057542;28;20212;-80
2023/01/26 12:15:03;;;;;;;7.83;6.60;;;;;;;;;;5071483;28;20205;-85
2023/01/26 12:17:36;;;;;;;8.30;6.73;;;;;;;;;;5046036;28;20319;-81
2023/01/26 12:20:17;;;;;;;9.87;7.93;;;;;;;;;;5070475;28;20205;-80
2023/01/26 12:22:47;;;;;;;14.73;11.30;;;;;;;;;;5071084;28;20679;-80
2023/01/26 12:25:23;;;;;;;15.00;11.57;;;;;;;;;;5057589;28;20197;-80
2023/01/26 12:27:54;;;;;;;15.20;11.90;;;;;;;;;;5070974;28;20216;-80
2023/01/26 12:30:34;;;;;;;14.63;10.90;;;;;;;;;;5070771;28;20645;-80
2023/01/26 12:33:02;;;;;;;11.53;9.40;;;;;;;;;;5057815;28;20234;-81
2023/01/26 12:35:42;;;;;;;11.07;8.77;;;;;;;;;;5061690;28;20252;-79
2023/01/26 12:38:11;;;;;;;14.13;10.60;;;;;;;;;;5068485;28;20765;-80
2023/01/26 12:40:44;;;;;;;9.13;7.37;;;;;;;;;;5070150;28;20197;-80
2023/01/26 12:43:23;;;;;;;9.17;7.17;;;;;;;;;;5065298;28;20201;-80
2023/01/26 12:45:53;;;;;;;6.33;5.33;;;;;;;;;;5064042;28;20201;-80
2023/01/26 12:48:22;;;;;;;10.03;9.03;;;;;;;;;;5058660;28;20594;-80
2023/01/26 12:50:52;;;;;;;18.90;14.83;;;;;;;;;;5068848;28;20672;-80
2023/01/26 12:53:22;;;;;;;11.20;9.27;;;;;;;;;;5059436;28;20757;-80
2023/01/26 12:55:53;;;;;;;8.53;5.80;;;;;;;;;;5054501;28;20206;-79
2023/01/26 12:58:22;;;;;;;5.70;4.90;;;;;;;;;;5060870;28;20229;-80
2023/01/26 13:00:57;;;;;;;7.10;5.73;;;;;;;;;;5070405;28;20256;-79
2023/01/26 13:03:28;;;;;;;4.17;3.77;;;;;;;;;;5059179;28;20201;-79
2023/01/26 13:05:59;;;;;;;4.73;4.33;;;;;;;;;;5069498;28;20197;-79
2023/01/26 13:09:03;;;;;;;4.40;3.93;;;;;;;;;;5071235;28;20650;-80
2023/01/26 13:11:50;;;;;;;6.27;4.23;;;;;;;;;;5021063;28;20206;-79
2023/01/26 13:14:37;;;;;;;4.70;4.27;;;;;;;;;;5045885;28;20236;-80
2023/01/26 13:17:42;;;;;;;5.00;4.37;;;;;;;;;;5070640;28;20820;-80
2023/01/26 13:20:23;;;;;;;5.97;5.23;;;;;;;;;;5070280;28;20284;-80
2023/01/26 13:22:53;;;;;;;6.53;5.83;;;;;;;;;;5070826;28;20205;-81
2023/01/26 13:25:28;;;;;;;8.30;5.67;;;;;;;;;;5065181;28;20208;-80
2023/01/26 13:27:56;;;;;;;8.60;6.80;;;;;;;;;;5064332;28;20212;-81
2023/01/26 13:30:36;;;;;;;7.70;6.87;;;;;;;;;;5064302;28;20212;-80
2023/01/26 13:33:12;;;;;;;5.13;4.67;;;;;;;;;;5063742;28;20201;-82
2023/01/26 13:35:39;;;;;;;6.83;6.13;;;;;;;;;;5051458;28;20673;-81
2023/01/26 13:38:19;;;;;;;18.10;14.80;;;;;;;;;;5054680;28;20255;-81
2023/01/26 13:40:49;;;;;;;20.00;16.63;;;;;;;;;;5058306;28;20288;-80
2023/01/26 13:43:20;;;;;;;15.97;12.83;;;;;;;;;;5050604;28;20213;-80
2023/01/26 13:45:55;;;;;;;17.80;13.83;;;;;;;;;;5063675;28;20680;-81
2023/01/26 13:48:32;;;;;;;11.77;8.77;;;;;;;;;;5050344;28;20216;-81
2023/01/26 13:51:00;;;;;;;9.30;8.27;;;;;;;;;;5063903;28;20568;-81
2023/01/26 13:53:36;;;;;;;8.73;7.60;;;;;;;;;;5054584;28;20198;-81
2023/01/26 13:56:08;;;;;;;9.97;8.60;;;;;;;;;;5054677;28;20201;-81
2023/01/26 13:58:34;;;;;;;5.97;5.00;;;;;;;;;;5066388;28;20228;-81
2023/01/26 14:01:03;;;;;;;7.30;6.60;;;;;;;;;;5073660;28;20221;-80
2023/01/26 14:03:30;;;;;;;7.20;6.60;;;;;;;;;;5061358;28;20217;-81
2023/01/26 14:05:59;;;;;;;6.77;4.50;;;;;;;;;;5059266;28;20762;-81
2023/01/26 14:08:26;;;;;;;3.87;3.47;;;;;;;;;;5057142;28;20225;-81
2023/01/26 14:10:54;;;;;;;3.03;2.83;;;;;;;;;;5060131;28;20251;-81
2023/01/26 14:13:26;;;;;;;3.23;3.03;;;;;;;;;;5060581;28;20214;-81
2023/01/26 14:15:57;;;;;;;3.10;2.90;;;;;;;;;;5065640;28;20244;-80
2023/01/26 14:18:25;;;;;;;5.73;5.20;;;;;;;;;;5054699;28;20780;-82
2023/01/26 14:20:58;;;;;;;6.20;4.40;;;;;;;;;;5073135;28;20698;-81
2023/01/26 14:23:28;;;;;;;7.13;6.43;;;;;;;;;;5059934;28;20225;-81
2023/01/26 14:26:02;;;;;;;6.30;5.70;;;;;;;;;;5063242;28;20210;-81
2023/01/26 14:28:31;;;;;;;4.70;4.30;;;;;;;;;;5057237;28;20205;-81
2023/01/26 14:31:03;;;;;;;6.43;5.47;;;;;;;;;;5062157;28;20233;-82
2023/01/26 14:33:30;;;;;;;8.93;6.97;;;;;;;;;;5053478;28;20206;-82
2023/01/26 14:35:58;;;;;;;15.20;12.27;;;;;;;;;;5053051;28;20300;-81
2023/01/26 14:38:27;;;;;;;9.73;8.00;;;;;;;;;;5059198;28;20229;-81
2023/01/26 14:40:56;;;;;;;9.87;8.90;;;;;;;;;;5060158;28;20280;-81
2023/01/26 14:43:25;;;;;;;6.50;5.90;;;;;;;;;;5065999;28;20807;-80
2023/01/26 14:45:56;;;;;;;24.53;15.07;;;;;;;;;;5066117;28;20684;-82
2023/01/26 14:48:26;;;;;;;12.20;10.30;;;;;;;;;;5053036;28;20194;-82
2023/01/26 14:50:53;;;;;;;14.00;7.37;;;;;;;;;;5052956;28;20217;-82
2023/01/26 14:53:21;;;;;;;7.07;6.43;;;;;;;;;;5053000;28;20209;-81
2023/01/26 14:55:48;;;;;;;4.07;3.67;;;;;;;;;;5052651;28;20244;-83
2023/01/26 14:58:20;;;;;;;5.93;5.37;;;;;;;;;;5052801;28;20233;-82
2023/01/26 15:00:49;;;;;;;5.93;4.67;;;;;;;;;;5066046;28;20697;-82
2023/01/26 15:03:23;;;;;;;4.83;4.33;;;;;;;;;;5062319;28;20266;-82
2023/01/26 15:06:04;;;;;;;7.90;5.70;;;;;;;;;;5059357;28;20193;-83
2023/01/26 15:08:31;;;;;;;6.97;6.20;;;;;;;;;;5059092;28;20335;-82
2023/01/26 15:13:41;;;;;;;4.70;4.20;;;;;;;;;;5068156;28;20213;-82
2023/01/26 15:16:15;;;;;;;5.03;4.60;;;;;;;;;;5062544;28;20209;-83
2023/01/26 15:18:41;;;;;;;4.87;4.37;;;;;;;;;;5052213;28;20236;-82
2023/01/26 15:21:14;;;;;;;5.27;4.77;;;;;;;;;;5052365;28;20201;-82
2023/01/26 15:23:42;;;;;;;4.70;4.30;;;;;;;;;;5070048;28;20197;-82
2023/01/26 15:26:12;;;;;;;4.50;4.10;;;;;;;;;;5072328;28;20656;-82
2023/01/26 15:28:39;;;;;;;4.80;4.30;;;;;;;;;;5066386;28;20203;-83
2023/01/26 15:31:07;;;;;;;4.60;4.20;;;;;;;;;;5064930;28;20212;-83
2023/01/26 15:33:57;;;;;;;4.67;3.90;;;;;;;;;;5066273;28;20212;-82
2023/01/26 15:36:31;;;;;;;5.77;4.73;;;;;;;;;;5051402;28;20842;-82
2023/01/26 15:39:11;;;;;;;5.90;5.23;;;;;;;;;;5072055;28;20286;-82
2023/01/26 15:41:38;;;;;;;4.33;3.93;;;;;;;;;;5071520;28;20203;-83